Time;durP1;ratioP1;P1;durP2;ratioP2;P2;SDS_P1;SDS_P2;PMS_P1;PMS_P2;Temp;Humidity;BMP_temperature;BMP_pressure;BME280_temperature;BME280_humidity;BME280_pressure;Samples;Min_cycle;Max_cycle;Signal;HPM_P1;HPM_P2
2022/02/26 00:03:35;;;;;;;13.73;4.88;;;;;;;0.20;89.49;101827.78;8520672;33;20406;-73
2022/02/26 00:08:39;;;;;;;13.90;4.07;;;;;;;0.26;88.48;101833.84;8517713;33;20182;-74
2022/02/26 00:13:42;;;;;;;17.03;4.40;;;;;;;0.22;88.20;101842.72;8517283;33;20180;-72
2022/02/26 00:18:46;;;;;;;16.70;5.20;;;;;;;0.05;88.48;101850.88;8517078;33;20133;-75
2022/02/26 00:23:49;;;;;;;14.20;4.80;;;;;;;0.30;88.16;101853.16;8517242;33;20661;-72
2022/02/26 00:28:52;;;;;;;16.27;5.33;;;;;;;0.37;88.24;101853.06;8507777;27;20544;-77
2022/02/26 00:33:57;;;;;;;17.83;4.80;;;;;;;0.24;88.63;101861.19;8522668;33;21001;-77
2022/02/26 00:39:00;;;;;;;17.87;5.10;;;;;;;0.13;89.21;101863.97;8487752;33;20777;-76
2022/02/26 00:44:04;;;;;;;20.08;5.07;;;;;;;0.20;89.15;101864.78;8464224;34;20763;-77
2022/02/26 00:54:31;;;;;;;12.77;5.57;;;;;;;0.01;89.43;101874.72;8470859;34;20713;-76
2022/02/26 00:59:35;;;;;;;13.97;5.13;;;;;;;-0.06;89.44;101887.13;8471369;33;20141;-77
2022/02/26 01:04:41;;;;;;;9.40;3.93;;;;;;;-0.17;90.08;101889.91;8471753;34;20227;-77
2022/02/26 01:09:44;;;;;;;23.00;5.30;;;;;;;-0.20;90.46;101892.59;8470806;34;20537;-77
2022/02/26 01:14:47;;;;;;;14.43;4.30;;;;;;;-0.36;90.75;101901.59;8469593;34;20480;-75
2022/02/26 01:19:52;;;;;;;12.17;5.33;;;;;;;-0.10;90.88;101896.00;8471013;34;20325;-78
2022/02/26 01:24:55;;;;;;;14.87;4.30;;;;;;;-0.06;90.72;101903.84;8472198;34;20402;-76
2022/02/26 01:29:58;;;;;;;18.73;5.07;;;;;;;-0.15;90.98;101916.31;8466711;33;20520;-76
2022/02/26 01:35:04;;;;;;;17.17;6.00;;;;;;;0.06;90.43;101924.00;8466701;34;20296;-76
2022/02/26 01:40:09;;;;;;;9.83;4.80;;;;;;;0.15;89.96;101923.00;8473154;34;21146;-77
2022/02/26 01:45:15;;;;;;;13.43;4.87;;;;;;;0.16;90.01;101933.56;8485806;34;20304;-76
2022/02/26 01:50:20;;;;;;;12.87;5.60;;;;;;;0.21;89.97;101943.19;8474602;33;20465;-76
2022/02/26 01:55:23;;;;;;;8.10;4.23;;;;;;;0.09;89.85;101944.22;8469620;34;20284;-77
2022/02/26 02:00:26;;;;;;;16.57;6.60;;;;;;;0.03;90.13;101947.81;8468499;33;20196;-76
2022/02/26 02:05:32;;;;;;;12.80;5.43;;;;;;;0.13;89.97;101943.25;8471517;34;20413;-77
2022/02/26 02:10:39;;;;;;;18.42;5.50;;;;;;;0.04;89.25;101938.09;8468856;34;20456;-76
2022/02/26 02:15:43;;;;;;;12.67;4.60;;;;;;;0.14;88.18;101937.97;8470378;34;21089;-78
2022/02/26 02:20:49;;;;;;;17.85;5.80;;;;;;;-0.06;88.45;101945.25;8469506;34;20427;-76
2022/02/26 02:25:55;;;;;;;15.30;5.50;;;;;;;-0.06;88.47;101947.91;8470225;33;21166;-76
2022/02/26 02:30:58;;;;;;;9.48;4.15;;;;;;;-0.25;88.70;101949.00;8466066;34;20431;-78
2022/02/26 02:36:02;;;;;;;17.20;4.87;;;;;;;-0.20;88.86;101949.84;8468045;33;20725;-77
2022/02/26 02:41:07;;;;;;;17.43;5.57;;;;;;;-0.12;88.56;101956.78;8464248;34;20530;-77
2022/02/26 02:46:10;;;;;;;17.90;5.33;;;;;;;-0.09;88.06;101963.78;8470704;33;20595;-77
2022/02/26 02:51:13;;;;;;;15.23;5.40;;;;;;;-0.34;88.93;101960.56;8469050;34;20401;-78
2022/02/26 02:56:18;;;;;;;19.07;4.70;;;;;;;-0.35;88.68;101969.38;8468061;33;20459;-77
2022/02/26 03:01:21;;;;;;;12.40;4.57;;;;;;;-0.49;89.47;101985.34;8463709;34;20231;-76
2022/02/26 03:06:26;;;;;;;14.23;4.70;;;;;;;-0.24;88.42;101991.25;8465100;33;20514;-76
2022/02/26 03:11:30;;;;;;;19.83;4.60;;;;;;;-0.14;88.02;101997.31;8462853;34;20467;-77
2022/02/26 03:16:33;;;;;;;15.20;5.20;;;;;;;-0.11;87.99;101997.28;8463433;33;20268;-77
2022/02/26 03:21:37;;;;;;;14.27;5.37;;;;;;;-0.12;88.11;102001.69;8468446;33;20634;-77
2022/02/26 03:26:42;;;;;;;14.47;5.03;;;;;;;-0.12;88.29;102012.25;8467639;34;20597;-76
2022/02/26 03:31:46;;;;;;;16.43;5.67;;;;;;;-0.16;88.56;102013.19;8467836;34;20419;-78
2022/02/26 03:36:51;;;;;;;12.70;4.27;;;;;;;-0.50;88.77;102010.00;8464817;34;20444;-76
2022/02/26 03:41:55;;;;;;;14.47;4.97;;;;;;;-0.45;88.56;102016.09;8463373;33;20891;-78
2022/02/26 03:46:59;;;;;;;13.93;4.43;;;;;;;-0.45;88.87;102026.66;8462830;34;20199;-77
2022/02/26 03:52:03;;;;;;;14.85;4.45;;;;;;;-0.36;88.85;102031.00;8460521;34;20142;-78
2022/02/26 03:57:08;;;;;;;15.20;4.37;;;;;;;-0.27;88.44;102030.91;8461008;34;20141;-76
2022/02/26 04:02:11;;;;;;;11.90;4.73;;;;;;;-0.25;88.27;102034.41;8460963;34;20141;-77
2022/02/26 04:07:15;;;;;;;17.47;5.03;;;;;;;-0.23;88.31;102050.25;8462331;34;20661;-77
2022/02/26 04:12:20;;;;;;;19.00;4.80;;;;;;;-0.43;89.36;102047.78;8467593;34;20146;-77
2022/02/26 04:17:23;;;;;;;15.87;4.80;;;;;;;-0.40;89.39;102047.75;8468627;34;20186;-77
2022/02/26 04:22:26;;;;;;;15.93;5.70;;;;;;;-0.41;89.53;102053.91;8464686;33;20409;-76
2022/02/26 04:27:31;;;;;;;18.30;5.27;;;;;;;-0.75;88.68;102067.38;8465884;34;20441;-77
2022/02/26 04:32:33;;;;;;;18.43;6.03;;;;;;;-0.81;88.97;102060.41;8466745;34;20430;-76
2022/02/26 04:37:36;;;;;;;19.77;5.50;;;;;;;-0.75;89.33;102068.25;8469994;34;20448;-77
2022/02/26 04:42:41;;;;;;;16.23;4.97;;;;;;;-0.80;89.42;102069.19;8473247;34;20522;-77
2022/02/26 04:47:45;;;;;;;20.07;5.80;;;;;;;-0.85;89.85;102071.88;8469891;33;20498;-77
2022/02/26 04:52:48;;;;;;;17.77;4.60;;;;;;;-0.72;89.57;102067.38;8470414;34;20144;-77
2022/02/26 04:57:52;;;;;;;14.53;6.00;;;;;;;-0.71;89.20;102069.13;8469255;34;20142;-77
2022/02/26 05:02:55;;;;;;;15.07;5.03;;;;;;;-0.82;89.60;102074.50;8469455;33;21077;-77
2022/02/26 05:07:58;;;;;;;15.97;6.17;;;;;;;-0.93;89.92;102078.06;8466872;33;20459;-76
2022/02/26 05:13:03;;;;;;;19.55;5.75;;;;;;;-0.87;89.81;102075.41;8467144;33;20410;-77
2022/02/26 05:18:07;;;;;;;11.47;5.30;;;;;;;-0.89;89.81;102080.69;8469369;34;20281;-77
2022/02/26 05:23:11;;;;;;;16.73;5.43;;;;;;;-0.89;89.99;102098.28;8466995;33;20408;-77
2022/02/26 05:28:15;;;;;;;16.30;5.43;;;;;;;-0.82;90.31;102098.25;8467188;34;20232;-77
2022/02/26 05:33:19;;;;;;;20.17;5.67;;;;;;;-0.76;90.22;102115.78;8471541;33;20223;-76
2022/02/26 05:38:22;;;;;;;18.57;6.00;;;;;;;-0.78;90.36;102118.44;8471799;33;20266;-78
2022/02/26 05:43:26;;;;;;;12.17;5.80;;;;;;;-0.76;90.26;102131.63;8465648;34;20169;-77
2022/02/26 05:48:29;;;;;;;15.93;5.93;;;;;;;-0.79;90.19;102135.16;8462469;33;20653;-79
2022/02/26 05:53:32;;;;;;;13.97;6.13;;;;;;;-0.78;90.10;102143.94;8464630;33;20434;-76
2022/02/26 05:58:37;;;;;;;15.43;5.27;;;;;;;-0.73;90.41;102150.09;8462456;34;20423;-77
2022/02/26 06:03:40;;;;;;;19.93;6.67;;;;;;;-0.80;90.43;102164.19;8462840;33;20623;-76
2022/02/26 06:08:43;;;;;;;19.17;6.23;;;;;;;-0.92;90.29;102154.59;8456701;34;20226;-77
2022/02/26 06:13:47;;;;;;;17.87;6.80;;;;;;;-0.98;90.58;102165.19;8456258;34;20188;-76
2022/02/26 06:18:50;;;;;;;20.53;10.03;;;;;;;-0.90;90.54;102179.22;8455251;33;20426;-76
2022/02/26 06:23:53;;;;;;;19.55;6.55;;;;;;;-0.84;90.25;102184.44;8455808;34;20412;-76
2022/02/26 06:28:59;;;;;;;18.80;5.80;;;;;;;-0.87;89.66;102197.66;8472849;34;20223;-78
2022/02/26 06:34:02;;;;;;;16.50;6.30;;;;;;;-0.84;90.12;102204.69;8469750;33;20990;-78
2022/02/26 06:39:06;;;;;;;14.67;5.67;;;;;;;-0.77;89.85;102211.69;8472942;33;20519;-77
2022/02/26 06:44:11;;;;;;;14.57;6.13;;;;;;;-0.67;89.78;102223.06;8473913;33;20579;-78
2022/02/26 06:49:14;;;;;;;21.10;7.23;;;;;;;-0.59;89.83;102221.28;8474103;34;20216;-77
2022/02/26 06:54:17;;;;;;;15.23;6.03;;;;;;;-0.67;89.43;102246.84;8486354;33;20185;-77
2022/02/26 06:59:22;;;;;;;15.60;6.40;;;;;;;-0.67;89.41;102236.28;8486784;34;20678;-76
2022/02/26 07:04:25;;;;;;;13.83;7.53;;;;;;;-0.79;89.79;102261.84;8474341;33;20134;-77
2022/02/26 07:09:29;;;;;;;19.37;7.17;;;;;;;-0.62;89.48;102260.91;8474649;34;20161;-76
2022/02/26 07:14:34;;;;;;;9.57;4.87;;;;;;;-0.61;89.37;102273.19;8474045;34;20446;-75
2022/02/26 07:19:37;;;;;;;15.03;6.67;;;;;;;-0.51;89.44;102274.91;8469132;34;20952;-77
2022/02/26 07:24:40;;;;;;;15.30;7.40;;;;;;;-0.38;89.66;102291.59;8470378;33;21156;-76
2022/02/26 07:29:45;;;;;;;16.27;7.80;;;;;;;-0.24;89.10;102297.66;8467393;34;20463;-76
2022/02/26 07:34:48;;;;;;;12.77;6.27;;;;;;;-0.24;89.17;102302.09;8467896;33;20200;-77
2022/02/26 07:39:53;;;;;;;14.73;7.03;;;;;;;-0.30;89.92;102306.50;8463657;33;20463;-76
2022/02/26 07:44:58;;;;;;;16.77;7.23;;;;;;;-0.04;88.48;102309.88;8477866;33;20514;-76
2022/02/26 07:50:01;;;;;;;18.27;8.17;;;;;;;0.23;88.10;102319.41;8469689;34;20426;-76
2022/02/26 07:55:07;;;;;;;14.63;7.03;;;;;;;0.24;87.92;102323.78;8475257;34;20442;-77
2022/02/26 08:00:13;;;;;;;17.83;8.43;;;;;;;0.53;88.16;102320.94;8461756;33;20200;-76
2022/02/26 08:05:16;;;;;;;14.15;7.63;;;;;;;0.62;87.23;102328.78;8465656;33;20507;-76
2022/02/26 08:10:22;;;;;;;24.85;9.60;;;;;;;0.73;87.13;102329.56;8460359;34;20734;-77
2022/02/26 08:15:29;;;;;;;21.38;8.18;;;;;;;1.24;88.13;102339.66;8458301;33;20156;-77
2022/02/26 08:20:32;;;;;;;21.95;8.73;;;;;;;1.88;86.79;102333.53;8458169;33;20531;-75
2022/02/26 08:25:36;;;;;;;19.27;8.15;;;;;;;1.38;83.43;102353.59;8461972;33;20536;-75
2022/02/26 08:30:40;;;;;;;12.30;7.38;;;;;;;1.21;83.74;102353.81;8470970;33;20256;-77
2022/02/26 08:35:43;;;;;;;18.02;7.15;;;;;;;1.48;84.63;102360.56;8479797;33;20427;-77
2022/02/26 08:40:46;;;;;;;10.38;6.43;;;;;;;1.88;84.38;102357.41;8468028;33;20487;-74
2022/02/26 08:45:51;;;;;;;14.93;6.88;;;;;;;2.14;83.22;102361.47;8464222;33;20619;-75
2022/02/26 08:50:54;;;;;;;13.25;7.20;;;;;;;2.35;83.38;102366.44;8460934;33;21067;-77
2022/02/26 08:55:58;;;;;;;14.35;6.88;;;;;;;3.05;82.76;102371.53;8461687;33;21180;-77
2022/02/26 09:01:03;;;;;;;15.38;6.72;;;;;;;3.83;80.77;102377.97;8459845;33;20244;-74
2022/02/26 09:06:06;;;;;;;14.40;5.78;;;;;;;4.16;77.44;102372.81;8460133;33;20645;-75
2022/02/26 09:11:09;;;;;;;12.90;5.20;;;;;;;4.14;78.52;102369.31;8463301;33;20510;-76
2022/02/26 09:16:16;;;;;;;14.10;5.35;;;;;;;3.44;77.38;102377.88;8465740;33;20522;-75
2022/02/26 09:21:19;;;;;;;10.85;4.90;;;;;;;3.71;79.10;102381.75;8465595;33;20161;-75
2022/02/26 09:26:22;;;;;;;8.95;5.38;;;;;;;3.09;80.37;102383.84;8469878;33;20472;-75
2022/02/26 09:31:27;;;;;;;8.02;4.47;;;;;;;3.43;75.90;102388.56;8469978;34;20476;-75
2022/02/26 09:36:30;;;;;;;17.83;5.07;;;;;;;3.96;77.73;102394.53;8471438;33;21092;-74
2022/02/26 09:41:33;;;;;;;18.05;5.75;;;;;;;4.58;80.62;102397.56;8470191;34;20969;-74
2022/02/26 09:46:38;;;;;;;11.90;4.15;;;;;;;5.64;84.14;102405.47;8471284;33;20959;-75
2022/02/26 09:51:44;;;;;;;9.93;3.90;;;;;;;5.40;71.69;102401.72;8469611;33;20150;-75
2022/02/26 09:56:47;;;;;;;11.57;3.75;;;;;;;5.78;78.43;102413.09;8469580;34;20295;-75
2022/02/26 10:02:00;;;;;;;13.85;3.58;;;;;;;6.76;71.71;102402.06;8469956;33;20236;-75
2022/02/26 10:07:17;;;;;;;9.57;3.53;;;;;;;6.52;69.11;102408.19;8468538;33;20650;-76
2022/02/26 10:12:24;;;;;;;11.82;3.40;;;;;;;7.16;66.40;102400.75;8460140;33;20987;-76
2022/02/26 10:17:32;;;;;;;11.43;3.53;;;;;;;6.88;69.65;102407.94;8459686;33;20729;-76
2022/02/26 10:22:38;;;;;;;13.55;4.35;;;;;;;6.89;72.46;102410.59;8459453;33;20642;-75
2022/02/26 10:27:45;;;;;;;11.27;4.15;;;;;;;6.75;69.08;102411.00;8461670;33;20479;-76
2022/02/26 10:33:09;;;;;;;11.27;4.25;;;;;;;6.34;72.54;102415.88;8439068;34;20689;-76
2022/02/26 10:38:19;;;;;;;14.43;5.15;;;;;;;7.21;68.71;102405.94;8404415;34;20236;-76
2022/02/26 10:43:47;;;;;;;11.88;3.17;;;;;;;8.19;60.61;102410.34;8401467;34;20151;-75
2022/02/26 10:48:54;;;;;;;13.68;3.53;;;;;;;8.29;67.15;102408.19;8403908;34;20158;-75
2022/02/26 10:53:59;;;;;;;15.13;2.92;;;;;;;7.86;62.21;102409.84;8400888;34;20142;-75
2022/02/26 10:59:03;;;;;;;9.38;2.92;;;;;;;6.60;63.96;102404.34;8402115;34;20505;-76
2022/02/26 11:04:08;;;;;;;8.02;3.20;;;;;;;8.73;69.01;102400.19;8402260;34;20189;-76
2022/02/26 11:09:12;;;;;;;12.68;3.30;;;;;;;10.16;61.04;102382.22;8403938;34;20510;-75
2022/02/26 11:14:20;;;;;;;10.88;3.38;;;;;;;10.57;61.96;102373.94;8405222;34;20468;-77
2022/02/26 11:19:26;;;;;;;11.88;3.28;;;;;;;10.57;60.12;102382.00;8405879;34;20778;-77
2022/02/26 11:24:30;;;;;;;10.57;2.97;;;;;;;11.64;56.35;102372.94;8412993;34;20563;-76
2022/02/26 11:29:33;;;;;;;10.85;3.08;;;;;;;11.33;60.91;102370.16;8406735;34;20525;-75
2022/02/26 11:34:39;;;;;;;10.77;3.03;;;;;;;9.67;53.37;102384.44;8405857;34;20481;-74
2022/02/26 11:39:45;;;;;;;8.82;2.88;;;;;;;10.13;65.81;102371.59;8405126;34;20182;-75
2022/02/26 11:44:53;;;;;;;10.18;3.47;;;;;;;12.06;62.13;102382.28;8403387;34;20154;-74
2022/02/26 11:50:01;;;;;;;5.30;2.75;;;;;;;13.82;51.43;102362.88;8418548;34;20579;-75
2022/02/26 11:55:25;;;;;;;14.02;2.95;;;;;;;14.63;56.69;102355.88;8439928;34;20153;-75
2022/02/26 12:00:32;;;;;;;10.07;3.75;;;;;;;15.26;55.90;102349.69;8411336;34;20437;-75
2022/02/26 12:05:38;;;;;;;9.75;2.97;;;;;;;15.05;47.50;102346.63;8351379;34;20151;-74
2022/02/26 12:10:54;;;;;;;8.05;3.53;;;;;;;15.26;52.00;102357.81;8351686;34;20560;-74
2022/02/26 12:16:27;;;;;;;10.80;3.10;;;;;;;15.19;46.99;102346.56;8363782;34;20482;-75
2022/02/26 12:21:36;;;;;;;14.73;3.60;;;;;;;15.17;48.15;102342.25;8347148;34;20281;-75
2022/02/26 12:27:00;;;;;;;16.67;4.35;;;;;;;16.03;55.74;102330.69;8425189;34;20450;-75
2022/02/26 12:32:08;;;;;;;10.88;2.92;;;;;;;15.10;41.13;102335.50;8411516;34;20573;-76
2022/02/26 12:37:19;;;;;;;10.77;3.60;;;;;;;15.40;42.87;102327.97;8411114;34;20367;-75
2022/02/26 12:42:24;;;;;;;9.32;3.67;;;;;;;16.06;38.86;102317.75;8410699;34;20414;-75
2022/02/26 12:47:29;;;;;;;6.95;2.83;;;;;;;16.40;48.54;102320.72;8417078;34;20468;-76
2022/02/26 12:52:38;;;;;;;11.70;3.72;;;;;;;16.57;47.53;102325.72;8415953;34;20517;-75
2022/02/26 12:57:45;;;;;;;7.88;3.08;;;;;;;15.16;48.56;102326.94;8417559;34;20300;-76
2022/02/26 13:02:55;;;;;;;14.65;3.03;;;;;;;15.64;51.04;102327.19;8416960;34;20212;-76
2022/02/26 13:08:04;;;;;;;9.45;2.70;;;;;;;14.12;39.16;102311.41;8429026;34;20433;-75
2022/02/26 13:13:09;;;;;;;8.45;2.60;;;;;;;13.03;41.44;102317.41;8430634;34;20192;-75
2022/02/26 13:18:13;;;;;;;7.60;3.13;;;;;;;11.26;46.76;102313.09;8442927;34;20213;-75
2022/02/26 13:23:19;;;;;;;4.85;2.58;;;;;;;11.83;42.68;102302.78;8450516;34;20462;-75
2022/02/26 13:28:24;;;;;;;9.15;2.95;;;;;;;12.32;44.49;102305.41;8431449;34;20166;-76
2022/02/26 13:33:27;;;;;;;5.22;2.70;;;;;;;12.62;40.35;102291.09;8420910;34;20985;-75
2022/02/26 13:38:33;;;;;;;5.65;2.65;;;;;;;11.80;42.67;102285.94;8424911;34;20877;-73
2022/02/26 13:43:36;;;;;;;7.10;2.42;;;;;;;14.33;40.72;102273.94;8427013;34;20147;-75
2022/02/26 13:48:43;;;;;;;8.93;2.50;;;;;;;17.14;34.65;102266.19;8415344;34;20175;-76
2022/02/26 13:53:48;;;;;;;9.20;2.47;;;;;;;17.98;32.26;102256.63;8412740;34;20511;-76
2022/02/26 13:58:54;;;;;;;5.80;2.60;;;;;;;18.84;29.86;102245.75;8413519;34;20293;-76
2022/02/26 14:04:00;;;;;;;7.88;2.50;;;;;;;19.26;29.54;102243.84;8410456;34;21101;-75
2022/02/26 14:09:18;;;;;;;7.53;2.42;;;;;;;18.75;28.34;102240.09;8410239;34;20588;-76
2022/02/26 14:14:26;;;;;;;8.18;2.25;;;;;;;15.30;31.01;102248.31;8411146;34;20131;-75
2022/02/26 14:19:32;;;;;;;8.82;2.10;;;;;;;15.86;32.76;102246.06;8408376;34;20915;-76
2022/02/26 14:24:43;;;;;;;4.50;1.92;;;;;;;14.88;34.21;102236.88;8408933;34;20512;-75
2022/02/26 14:29:47;;;;;;;7.57;2.20;;;;;;;15.12;34.64;102228.00;8404848;34;20161;-75
2022/02/26 14:34:50;;;;;;;8.40;2.42;;;;;;;15.62;32.41;102229.78;8426269;34;20520;-76
2022/02/26 14:39:55;;;;;;;5.47;2.17;;;;;;;15.38;33.41;102228.84;8436328;34;20442;-76
2022/02/26 14:44:59;;;;;;;8.02;2.33;;;;;;;15.44;33.87;102231.09;8462348;33;20531;-76
2022/02/26 14:50:02;;;;;;;8.35;2.30;;;;;;;15.39;33.33;102234.16;8462553;33;20693;-76
2022/02/26 14:55:09;;;;;;;7.05;2.80;;;;;;;14.59;33.77;102228.94;8464595;33;20149;-76
2022/02/26 15:00:17;;;;;;;7.88;2.53;;;;;;;14.54;34.00;102231.09;8461338;33;20422;-75
2022/02/26 15:05:20;;;;;;;4.70;2.20;;;;;;;14.38;33.76;102219.56;8461918;34;20258;-75
2022/02/26 15:10:24;;;;;;;8.82;2.72;;;;;;;14.21;33.98;102225.28;8458773;33;20867;-76
2022/02/26 15:15:28;;;;;;;8.55;2.75;;;;;;;13.83;33.58;102216.03;8453961;34;20477;-75
2022/02/26 15:20:31;;;;;;;6.65;1.75;;;;;;;13.69;34.04;102213.38;8454578;33;20247;-76
2022/02/26 15:25:36;;;;;;;8.27;2.45;;;;;;;13.17;34.06;102224.78;8455958;33;20154;-76
2022/02/26 15:30:39;;;;;;;7.07;2.47;;;;;;;13.00;35.31;102228.53;8461097;33;20416;-76
2022/02/26 15:35:42;;;;;;;7.15;2.40;;;;;;;12.75;36.01;102226.47;8462549;33;20145;-76
2022/02/26 15:40:47;;;;;;;6.28;2.35;;;;;;;12.42;36.73;102222.16;8465604;33;21051;-76
2022/02/26 15:45:50;;;;;;;5.82;2.10;;;;;;;12.10;36.95;102224.91;8464170;33;20574;-75
2022/02/26 15:50:54;;;;;;;10.35;2.33;;;;;;;11.69;36.85;102230.88;8419891;33;20895;-75
2022/02/26 15:55:59;;;;;;;8.52;2.60;;;;;;;10.93;39.51;102226.97;8411911;34;20150;-74
2022/02/26 16:01:02;;;;;;;8.52;2.67;;;;;;;10.08;40.45;102238.50;8415946;34;20154;-74
2022/02/26 16:06:10;;;;;;;5.40;3.10;;;;;;;9.37;42.78;102236.50;8467261;34;20431;-75
2022/02/26 16:11:14;;;;;;;7.97;2.67;;;;;;;9.12;44.46;102238.56;8476782;34;20558;-75
2022/02/26 16:16:18;;;;;;;5.22;2.30;;;;;;;9.06;44.66;102237.91;8468339;34;20418;-73
2022/02/26 16:21:22;;;;;;;7.40;2.75;;;;;;;8.77;45.40;102251.72;8471380;34;20149;-75
2022/02/26 16:26:26;;;;;;;5.70;2.70;;;;;;;8.32;46.20;102248.25;8474597;33;20494;-76
2022/02/26 16:31:29;;;;;;;5.28;2.33;;;;;;;8.32;46.62;102253.63;8474244;33;20161;-76
2022/02/26 16:36:32;;;;;;;8.85;3.38;;;;;;;8.21;46.77;102241.63;8473811;33;20465;-75
2022/02/26 16:41:37;;;;;;;11.80;5.32;;;;;;;7.87;47.35;102240.31;8476193;33;20520;-76
2022/02/26 16:46:41;;;;;;;11.65;5.38;;;;;;;7.53;47.84;102247.00;8484678;33;20429;-76
2022/02/26 16:51:45;;;;;;;10.07;4.82;;;;;;;7.18;48.62;102251.88;8487697;34;20528;-75
2022/02/26 16:56:49;;;;;;;10.20;5.72;;;;;;;6.96;49.82;102257.13;8490363;33;20695;-76
2022/02/26 17:01:52;;;;;;;10.90;6.13;;;;;;;6.73;50.36;102243.69;8491233;34;20432;-76
2022/02/26 17:06:56;;;;;;;11.90;6.40;;;;;;;6.37;50.99;102258.28;8495936;34;20149;-76
2022/02/26 17:12:01;;;;;;;10.57;5.30;;;;;;;6.12;51.94;102258.22;8496849;33;20453;-75
2022/02/26 17:17:04;;;;;;;14.50;5.38;;;;;;;5.94;51.99;102267.66;8496936;33;20540;-76
2022/02/26 17:22:07;;;;;;;9.77;5.40;;;;;;;5.77;52.37;102263.81;8490768;34;20534;-75
2022/02/26 17:27:13;;;;;;;13.90;6.75;;;;;;;5.64;52.82;102264.16;8490110;33;20455;-76
2022/02/26 17:32:16;;;;;;;15.50;6.90;;;;;;;5.56;53.33;102278.66;8489748;33;20485;-76
2022/02/26 17:37:19;;;;;;;19.52;7.82;;;;;;;5.44;53.82;102277.22;8482258;33;20433;-76
2022/02/26 17:42:24;;;;;;;16.67;9.00;;;;;;;5.40;54.55;102275.56;8476518;33;20518;-75
2022/02/26 17:47:27;;;;;;;16.38;8.32;;;;;;;5.32;54.73;102275.81;8482139;34;20632;-74
2022/02/26 17:52:30;;;;;;;12.93;7.25;;;;;;;5.17;54.82;102276.22;8470826;33;20456;-75
2022/02/26 17:57:35;;;;;;;17.45;9.10;;;;;;;5.04;55.42;102278.34;8469103;33;20517;-74
2022/02/26 18:02:38;;;;;;;99.15;36.42;;;;;;;4.95;55.75;102275.91;8469551;33;20537;-74
2022/02/26 18:07:41;;;;;;;34.45;15.85;;;;;;;4.92;55.89;102278.66;8469752;33;20708;-74
2022/02/26 18:12:45;;;;;;;28.08;13.82;;;;;;;4.86;56.10;102279.72;8470383;33;20545;-74
2022/02/26 18:17:48;;;;;;;36.13;20.90;;;;;;;4.77;56.60;102279.94;8471278;33;20487;-74
2022/02/26 18:22:51;;;;;;;32.03;18.88;;;;;;;4.67;56.92;102275.78;8471037;33;20562;-75
2022/02/26 18:27:56;;;;;;;47.38;21.98;;;;;;;4.65;57.73;102286.47;8518381;27;20444;-76
2022/02/26 18:32:59;;;;;;;39.15;18.08;;;;;;;4.53;58.73;102285.00;8474404;33;20417;-75
2022/02/26 18:38:03;;;;;;;32.30;16.13;;;;;;;4.45;58.58;102286.13;8491662;33;20545;-75
2022/02/26 18:43:07;;;;;;;30.80;17.60;;;;;;;4.33;58.90;102284.63;8467861;34;20244;-74
2022/02/26 18:48:10;;;;;;;26.67;17.95;;;;;;;4.24;59.29;102287.50;8467181;33;20424;-77
2022/02/26 18:53:15;;;;;;;104.45;44.33;;;;;;;4.13;59.48;102296.63;8467076;34;20449;-75
2022/02/26 18:58:20;;;;;;;57.30;28.10;;;;;;;3.97;60.23;102297.88;8467448;33;20536;-77
2022/02/26 19:03:23;;;;;;;61.40;30.75;;;;;;;3.88;60.32;102303.44;8467017;33;20468;-77
2022/02/26 19:08:26;;;;;;;32.17;20.35;;;;;;;3.86;60.30;102318.53;8466361;34;20433;-76
2022/02/26 19:13:33;;;;;;;36.38;19.70;;;;;;;3.80;60.48;102311.56;8466332;33;20569;-76
2022/02/26 19:18:36;;;;;;;27.15;17.05;;;;;;;3.66;60.54;102311.88;8465416;33;20165;-77
2022/02/26 19:23:41;;;;;;;25.33;15.23;;;;;;;3.64;60.60;102321.66;8467577;33;20496;-76
2022/02/26 19:28:45;;;;;;;27.17;14.30;;;;;;;3.49;60.34;102317.53;8466951;34;20268;-76
2022/02/26 19:33:48;;;;;;;27.42;13.18;;;;;;;3.47;61.49;102332.63;8470592;33;20515;-76
2022/02/26 19:38:51;;;;;;;30.45;16.20;;;;;;;3.44;61.03;102324.72;8467881;33;20524;-76
2022/02/26 19:43:56;;;;;;;26.80;16.27;;;;;;;3.25;62.08;102321.56;8461684;33;20438;-76
2022/02/26 19:48:59;;;;;;;32.78;17.17;;;;;;;2.99;62.65;102323.81;8461199;33;20639;-77
2022/02/26 19:54:03;;;;;;;32.03;18.30;;;;;;;2.92;63.55;102323.06;8461629;33;20149;-76
2022/02/26 19:59:07;;;;;;;35.03;17.75;;;;;;;2.98;64.17;102311.47;8465334;33;20248;-75
2022/02/26 20:04:10;;;;;;;33.00;18.38;;;;;;;2.99;63.88;102315.84;8466227;34;20512;-77
2022/02/26 20:09:17;;;;;;;33.33;17.77;;;;;;;2.88;64.47;102320.50;8464941;34;20915;-77
2022/02/26 20:14:22;;;;;;;31.17;17.95;;;;;;;2.79;64.50;102325.06;8465084;33;20434;-76
2022/02/26 20:19:25;;;;;;;29.90;18.58;;;;;;;2.75;64.97;102318.06;8468298;33;20593;-76
2022/02/26 20:24:30;;;;;;;29.70;17.73;;;;;;;2.68;65.12;102319.06;8470689;34;20407;-76
2022/02/26 20:29:35;;;;;;;27.98;15.38;;;;;;;2.69;65.31;102323.50;8476529;33;20411;-76
2022/02/26 20:34:39;;;;;;;21.70;14.77;;;;;;;2.57;65.43;102323.69;8484005;33;20573;-73
2022/02/26 20:39:43;;;;;;;25.02;13.30;;;;;;;2.48;66.14;102324.69;8486753;33;20214;-76
2022/02/26 20:44:48;;;;;;;19.00;12.18;;;;;;;2.38;66.34;102323.06;8496503;33;20263;-75
2022/02/26 20:49:52;;;;;;;15.38;10.40;;;;;;;2.26;66.79;102326.81;8492211;34;20467;-75
2022/02/26 20:54:57;;;;;;;17.15;10.48;;;;;;;2.23;66.99;102331.28;8487217;34;20418;-76
2022/02/26 21:00:03;;;;;;;16.55;10.20;;;;;;;1.97;67.36;102329.00;8542162;33;20425;-76
2022/02/26 21:05:07;;;;;;;20.00;11.45;;;;;;;1.33;68.78;102328.06;8540299;33;20149;-76
2022/02/26 21:10:10;;;;;;;17.98;11.75;;;;;;;1.43;68.93;102320.00;8541308;33;20668;-74
2022/02/26 21:15:15;;;;;;;22.10;11.30;;;;;;;1.55;69.24;102334.84;8541952;33;20590;-76
2022/02/26 21:20:19;;;;;;;19.13;11.20;;;;;;;1.67;68.92;102328.53;8539650;33;20181;-75
2022/02/26 21:25:22;;;;;;;16.60;9.98;;;;;;;1.81;68.99;102329.25;8540753;33;20152;-77
2022/02/26 21:30:27;;;;;;;19.17;10.38;;;;;;;1.82;68.84;102338.94;8541245;33;20562;-76
2022/02/26 21:35:30;;;;;;;17.00;11.70;;;;;;;1.30;70.05;102338.72;8540386;33;20444;-76
2022/02/26 21:40:33;;;;;;;22.08;11.02;;;;;;;1.08;71.04;102341.56;8539685;33;20596;-77
2022/02/26 21:45:39;;;;;;;17.38;10.85;;;;;;;1.27;71.39;102339.63;8540642;33;20631;-76
2022/02/26 21:50:42;;;;;;;17.98;10.98;;;;;;;1.30;70.69;102334.28;8530548;33;20145;-76
2022/02/26 21:55:46;;;;;;;21.52;11.52;;;;;;;1.25;70.54;102331.66;8524207;33;20243;-75
2022/02/26 22:00:51;;;;;;;23.85;13.90;;;;;;;1.18;70.77;102339.69;8543794;33;20195;-76
2022/02/26 22:05:55;;;;;;;25.85;14.38;;;;;;;1.05;70.91;102333.66;8608337;33;20152;-76
2022/02/26 22:10:58;;;;;;;19.35;12.57;;;;;;;1.11;71.56;102338.91;8591102;33;20631;-77
2022/02/26 22:16:03;;;;;;;23.00;11.88;;;;;;;1.26;71.63;102332.53;8581823;33;20180;-77
2022/02/26 22:21:06;;;;;;;19.52;11.55;;;;;;;1.33;71.17;102328.94;8535701;33;20148;-75
2022/02/26 22:26:10;;;;;;;20.25;11.82;;;;;;;1.35;71.34;102313.06;8582002;33;25473;-77
2022/02/26 22:31:15;;;;;;;21.25;12.98;;;;;;;1.23;70.72;102322.00;8598740;33;20230;-77
2022/02/26 22:36:18;;;;;;;22.98;12.60;;;;;;;1.17;71.14;102327.38;8561787;33;20148;-77
2022/02/26 22:41:21;;;;;;;19.02;12.13;;;;;;;1.31;71.56;102330.72;8585120;33;20148;-77
2022/02/26 22:46:25;;;;;;;22.77;13.32;;;;;;;1.31;71.02;102327.22;8595877;33;20283;-77
2022/02/26 22:51:29;;;;;;;23.10;12.52;;;;;;;1.15;71.74;102321.19;8520007;33;20413;-75
2022/02/26 22:56:39;;;;;;;21.40;13.32;;;;;;;1.15;71.49;102316.81;8523263;33;20141;-76
2022/02/26 23:01:43;;;;;;;21.48;12.30;;;;;;;0.99;71.26;102316.09;8584132;33;20170;-76
2022/02/26 23:06:47;;;;;;;21.13;12.88;;;;;;;0.99;71.71;102312.56;8584300;33;20143;-76
2022/02/26 23:11:50;;;;;;;24.90;15.10;;;;;;;0.94;71.63;102309.09;8580919;33;20419;-77
2022/02/26 23:16:55;;;;;;;20.48;13.38;;;;;;;0.78;72.03;102321.59;8579864;33;20401;-76
2022/02/26 23:21:58;;;;;;;20.27;12.00;;;;;;;0.61;72.11;102309.38;8579386;33;20242;-76
2022/02/26 23:27:01;;;;;;;24.08;12.73;;;;;;;0.25;72.76;102305.28;8579524;33;20541;-77
2022/02/26 23:32:07;;;;;;;19.08;12.85;;;;;;;0.15;73.12;102309.75;8567206;33;20171;-76
2022/02/26 23:37:11;;;;;;;23.23;13.68;;;;;;;0.12;73.21;102309.78;8579586;33;20499;-76